createdAt,value
2022-07-29T00:01:44.461Z,21.02
2022-07-29T00:04:14.279Z,21.01
2022-07-29T00:06:43.133Z,21.00
2022-07-29T00:09:11.721Z,20.95
2022-07-29T00:11:40.238Z,20.85
2022-07-29T00:14:09.549Z,20.79
2022-07-29T00:16:38.274Z,20.77
2022-07-29T00:19:07.833Z,20.78
2022-07-29T00:21:36.521Z,20.79
2022-07-29T00:24:05.355Z,20.79
2022-07-29T00:26:33.847Z,20.79
2022-07-29T00:31:53.496Z,20.73
2022-07-29T00:34:40.434Z,20.70
2022-07-29T00:37:09.001Z,20.68
2022-07-29T00:39:37.395Z,20.69
2022-07-29T00:42:06.568Z,20.70
2022-07-29T00:44:44.396Z,20.70
2022-07-29T00:47:13.785Z,20.71
2022-07-29T00:49:43.890Z,20.72
2022-07-29T00:52:16.797Z,20.71
2022-07-29T00:54:45.942Z,20.67
2022-07-29T00:57:14.670Z,20.65
2022-07-29T00:59:43.092Z,20.65
2022-07-29T01:02:12.217Z,20.67
2022-07-29T01:04:42.103Z,20.69
2022-07-29T01:07:12.184Z,20.67
2022-07-29T01:09:46.063Z,20.67
2022-07-29T01:12:20.388Z,20.69
2022-07-29T01:14:51.380Z,20.73
2022-07-29T01:17:19.693Z,20.77
2022-07-29T01:20:02.889Z,20.81
2022-07-29T01:23:07.915Z,20.87
2022-07-29T01:26:07.087Z,20.93
2022-07-29T01:29:07.506Z,20.98
2022-07-29T01:32:05.512Z,21.02
2022-07-29T01:34:55.595Z,21.07
2022-07-29T01:37:31.007Z,21.10
2022-07-29T01:40:03.370Z,21.11
2022-07-29T01:42:46.511Z,21.08
2022-07-29T01:45:44.664Z,21.05
2022-07-29T01:48:48.463Z,21.02
2022-07-29T01:51:28.955Z,20.98
2022-07-29T01:54:12.479Z,20.93
2022-07-29T01:56:44.165Z,20.90
2022-07-29T01:59:13.072Z,20.86
2022-07-29T02:01:45.332Z,20.85
2022-07-29T02:04:29.897Z,20.82
2022-07-29T02:07:05.485Z,20.82
2022-07-29T02:09:37.649Z,20.82
2022-07-29T02:12:08.454Z,20.82
2022-07-29T02:14:45.066Z,20.81
2022-07-29T02:17:16.993Z,20.81
2022-07-29T02:19:47.219Z,20.78
2022-07-29T02:22:19.731Z,20.77
2022-07-29T02:24:50.582Z,20.77
2022-07-29T02:27:21.719Z,20.75
2022-07-29T02:29:52.797Z,20.75
2022-07-29T02:32:23.926Z,20.72
2022-07-29T02:34:54.250Z,20.69
2022-07-29T02:37:23.362Z,20.62
2022-07-29T02:39:55.041Z,20.56
2022-07-29T02:42:25.279Z,20.49
2022-07-29T02:44:54.038Z,20.41
2022-07-29T02:47:45.000Z,20.36
2022-07-29T02:50:31.109Z,20.27
2022-07-29T02:53:01.447Z,20.18
2022-07-29T02:55:35.146Z,20.08
2022-07-29T02:58:12.364Z,20.03
2022-07-29T03:00:43.711Z,19.99
2022-07-29T03:03:22.414Z,19.97
2022-07-29T03:05:56.159Z,19.88
2022-07-29T03:08:25.674Z,19.84
2022-07-29T03:10:54.761Z,19.81
2022-07-29T03:13:24.027Z,19.77
2022-07-29T03:15:53.590Z,19.76
2022-07-29T03:18:22.405Z,19.73
2022-07-29T03:20:51.140Z,19.71
2022-07-29T03:23:21.959Z,19.65
2022-07-29T03:25:52.012Z,19.59
2022-07-29T03:28:21.179Z,19.58
2022-07-29T03:30:51.356Z,19.59
2022-07-29T03:33:19.963Z,19.59
2022-07-29T03:35:48.715Z,19.59
2022-07-29T03:38:17.314Z,19.61
2022-07-29T03:40:52.717Z,19.61
2022-07-29T03:43:22.738Z,19.62
2022-07-29T03:45:56.160Z,19.61
2022-07-29T03:48:27.728Z,19.60
2022-07-29T03:50:57.063Z,19.59
2022-07-29T03:53:25.808Z,19.61
2022-07-29T03:56:00.826Z,19.64
2022-07-29T03:58:33.112Z,19.68
2022-07-29T04:01:02.026Z,19.72
2022-07-29T04:03:31.242Z,19.77
2022-07-29T04:06:07.386Z,19.80
2022-07-29T04:08:36.160Z,19.84
2022-07-29T04:11:05.887Z,19.87
2022-07-29T04:13:34.506Z,19.87
2022-07-29T04:16:03.280Z,19.87
2022-07-29T04:18:32.065Z,19.86
2022-07-29T04:21:02.083Z,19.87
2022-07-29T04:23:34.542Z,19.88
2022-07-29T04:26:03.148Z,19.89
2022-07-29T04:28:31.570Z,19.92
2022-07-29T04:31:00.078Z,19.95
2022-07-29T04:33:28.805Z,19.98
2022-07-29T04:35:58.528Z,20.04
2022-07-29T04:38:27.754Z,20.10
2022-07-29T04:40:56.477Z,20.14
2022-07-29T04:43:25.538Z,20.19
2022-07-29T04:45:55.556Z,20.24
2022-07-29T04:48:28.485Z,20.30
2022-07-29T04:50:57.988Z,20.37
2022-07-29T04:53:27.617Z,20.43
2022-07-29T04:55:56.540Z,20.48
2022-07-29T04:58:25.317Z,20.54
2022-07-29T05:00:54.088Z,20.60
2022-07-29T05:03:22.725Z,20.65
2022-07-29T05:05:51.225Z,20.70
2022-07-29T05:08:19.850Z,20.74
2022-07-29T05:10:48.475Z,20.80
2022-07-29T05:13:17.303Z,20.86
2022-07-29T05:15:45.893Z,20.91
2022-07-29T05:18:15.522Z,20.94
2022-07-29T05:20:47.740Z,20.97
2022-07-29T05:23:19.313Z,21.01
2022-07-29T05:25:50.123Z,21.03
2022-07-29T05:28:18.802Z,21.05
2022-07-29T05:30:47.868Z,21.06
2022-07-29T05:33:35.296Z,21.08
2022-07-29T05:36:08.155Z,21.13
2022-07-29T05:38:38.059Z,21.17
2022-07-29T05:41:07.009Z,21.20
2022-07-29T05:43:35.624Z,21.22
2022-07-29T05:46:04.414Z,21.24
2022-07-29T05:48:34.433Z,21.24
2022-07-29T05:51:03.569Z,21.25
2022-07-29T05:53:32.166Z,21.26
2022-07-29T05:56:08.433Z,21.27
2022-07-29T05:58:37.509Z,21.31
2022-07-29T06:01:06.745Z,21.33
2022-07-29T06:03:35.831Z,21.34
2022-07-29T06:06:08.508Z,21.33
2022-07-29T06:08:38.127Z,21.30
2022-07-29T06:11:06.943Z,21.24
2022-07-29T06:13:36.577Z,21.19
2022-07-29T06:16:05.696Z,21.16
2022-07-29T06:18:38.170Z,21.12
2022-07-29T06:21:13.444Z,21.14
2022-07-29T06:23:42.017Z,21.17
2022-07-29T06:26:10.516Z,21.20
2022-07-29T06:28:41.707Z,21.22
2022-07-29T06:31:13.871Z,21.25
2022-07-29T06:33:42.359Z,21.28
2022-07-29T06:36:10.926Z,21.29
2022-07-29T06:38:44.886Z,21.25
2022-07-29T06:41:18.662Z,21.24
2022-07-29T06:43:52.181Z,21.23
2022-07-29T06:46:24.527Z,21.20
2022-07-29T06:48:53.552Z,21.11
2022-07-29T06:51:23.917Z,21.05
2022-07-29T06:53:59.344Z,21.01
2022-07-29T06:56:39.635Z,20.94
2022-07-29T06:59:11.380Z,20.93
2022-07-29T07:01:44.020Z,20.90
2022-07-29T07:04:15.101Z,20.87
2022-07-29T07:06:46.609Z,20.85
2022-07-29T07:09:15.436Z,20.81
2022-07-29T07:11:43.911Z,20.83
2022-07-29T07:14:12.561Z,20.82
2022-07-29T07:16:41.361Z,20.80
2022-07-29T07:19:10.304Z,20.79
2022-07-29T07:21:39.092Z,20.78
2022-07-29T07:24:07.928Z,20.79
2022-07-29T07:26:36.902Z,20.83
2022-07-29T07:29:05.538Z,20.85
2022-07-29T07:31:34.484Z,20.88
2022-07-29T07:34:02.969Z,20.92
2022-07-29T07:36:34.614Z,20.97
2022-07-29T07:39:04.702Z,20.99
2022-07-29T07:41:33.350Z,21.01
2022-07-29T07:44:01.876Z,21.04
2022-07-29T07:46:31.918Z,21.09
2022-07-29T07:49:04.307Z,21.16
2022-07-29T07:51:32.791Z,21.24
2022-07-29T07:54:01.824Z,21.29
2022-07-29T07:56:35.135Z,21.32
2022-07-29T07:59:04.063Z,21.33
2022-07-29T08:01:48.099Z,21.33
2022-07-29T08:04:27.035Z,21.30
2022-07-29T08:06:58.972Z,21.31
2022-07-29T08:09:30.540Z,21.31
2022-07-29T08:12:00.407Z,21.33
2022-07-29T08:14:29.834Z,21.36
2022-07-29T08:16:59.419Z,21.39
2022-07-29T08:19:28.488Z,21.44
2022-07-29T08:21:57.003Z,21.48
2022-07-29T08:24:43.694Z,21.52
2022-07-29T08:27:27.239Z,21.58
2022-07-29T08:30:00.833Z,21.62
2022-07-29T08:32:51.283Z,21.67
2022-07-29T08:35:17.987Z,21.70
2022-07-29T08:37:46.690Z,21.72
2022-07-29T08:40:15.543Z,21.74
2022-07-29T08:42:44.100Z,21.75
2022-07-29T08:45:13.455Z,21.72
2022-07-29T08:47:41.975Z,21.70
2022-07-29T08:50:11.843Z,21.71
2022-07-29T08:52:42.215Z,21.74
2022-07-29T08:55:11.938Z,21.77
2022-07-29T08:57:49.628Z,21.76
2022-07-29T09:00:24.309Z,21.86
2022-07-29T09:03:00.287Z,21.92
2022-07-29T09:05:29.393Z,21.97
2022-07-29T09:07:57.907Z,22.01
2022-07-29T09:10:26.942Z,22.05
2022-07-29T09:12:56.481Z,22.10
2022-07-29T09:15:25.985Z,22.19
2022-07-29T09:17:54.496Z,22.24
2022-07-29T09:20:24.149Z,22.28
2022-07-29T09:22:54.623Z,22.31
2022-07-29T09:25:40.461Z,22.38
2022-07-29T09:28:17.731Z,22.38
2022-07-29T09:30:57.977Z,22.39
2022-07-29T09:33:40.217Z,22.41
2022-07-29T09:36:12.573Z,22.49
2022-07-29T09:38:41.183Z,22.56
2022-07-29T09:41:11.224Z,22.62
2022-07-29T09:43:40.552Z,22.68
2022-07-29T09:46:14.444Z,22.73
2022-07-29T09:48:42.978Z,22.71
2022-07-29T09:51:26.712Z,22.70
2022-07-29T09:53:58.441Z,22.63
2022-07-29T09:56:43.046Z,22.56
2022-07-29T09:59:13.212Z,22.48
2022-07-29T10:01:43.175Z,22.44
2022-07-29T10:04:11.633Z,22.37
2022-07-29T10:07:05.179Z,22.27
2022-07-29T10:09:34.881Z,22.22
2022-07-29T10:12:14.887Z,22.20
2022-07-29T10:14:44.488Z,22.17
2022-07-29T10:17:13.272Z,22.10
2022-07-29T10:19:44.944Z,21.97
2022-07-29T10:22:14.919Z,21.83
2022-07-29T10:24:43.685Z,21.67
2022-07-29T10:27:14.993Z,21.56
2022-07-29T10:29:43.661Z,21.46
2022-07-29T10:32:53.969Z,21.42
2022-07-29T10:35:42.433Z,21.37
2022-07-29T10:38:48.906Z,21.34
2022-07-29T10:41:47.690Z,21.31
2022-07-29T10:44:23.764Z,21.23
2022-07-29T10:46:54.696Z,21.26
2022-07-29T10:49:27.251Z,21.30
2022-07-29T10:52:11.931Z,21.36
2022-07-29T10:54:54.783Z,21.40
2022-07-29T11:00:33.233Z,21.43
2022-07-29T11:03:04.771Z,21.39
2022-07-29T11:05:59.551Z,21.44
2022-07-29T11:08:28.955Z,21.51
2022-07-29T11:11:20.193Z,21.48
2022-07-29T11:13:54.375Z,21.47
2022-07-29T11:16:25.164Z,21.40
2022-07-29T11:19:15.880Z,21.35
2022-07-29T11:21:58.292Z,21.29
2022-07-29T11:24:32.275Z,21.30
2022-07-29T11:27:18.172Z,21.35
2022-07-29T11:29:48.327Z,21.42
2022-07-29T11:32:22.674Z,21.48
2022-07-29T11:35:19.338Z,21.46
2022-07-29T11:38:31.842Z,21.35
2022-07-29T11:41:19.022Z,21.33
2022-07-29T11:43:52.299Z,21.40
2022-07-29T11:46:50.666Z,21.42
2022-07-29T11:49:31.943Z,21.47
2022-07-29T11:52:02.895Z,21.55
2022-07-29T11:57:36.163Z,21.61
2022-07-29T12:00:12.332Z,21.64
2022-07-29T12:02:48.436Z,21.60
2022-07-29T12:05:36.019Z,21.66
2022-07-29T12:08:15.096Z,21.72
2022-07-29T12:10:44.388Z,21.80
2022-07-29T12:13:14.640Z,21.86
2022-07-29T12:15:46.009Z,21.92
2022-07-29T12:18:18.742Z,22.05
2022-07-29T12:20:49.219Z,22.17
2022-07-29T12:23:18.918Z,22.24
2022-07-29T12:25:49.683Z,22.42
2022-07-29T12:28:26.963Z,22.83
2022-07-29T12:30:56.394Z,23.55
2022-07-29T12:33:28.587Z,24.19
2022-07-29T12:36:07.282Z,24.87
2022-07-29T12:38:37.047Z,25.53
2022-07-29T12:41:05.633Z,26.15
2022-07-29T12:43:34.383Z,26.60
2022-07-29T12:46:15.199Z,27.02
2022-07-29T12:48:45.505Z,27.36
2022-07-29T12:51:15.628Z,27.64
2022-07-29T12:54:16.511Z,27.89
2022-07-29T12:56:46.262Z,28.21
2022-07-29T12:59:20.075Z,28.30
2022-07-29T13:01:52.227Z,28.35
2022-07-29T13:04:27.921Z,28.33
2022-07-29T13:07:05.276Z,28.55
2022-07-29T13:09:46.512Z,28.85
2022-07-29T13:12:15.826Z,29.09
2022-07-29T13:14:50.184Z,29.29
2022-07-29T13:17:24.286Z,29.33
2022-07-29T13:20:06.389Z,29.45
2022-07-29T13:22:37.487Z,29.48
2022-07-29T13:25:07.733Z,29.44
2022-07-29T13:27:39.506Z,29.33
2022-07-29T13:30:10.495Z,29.35
2022-07-29T13:32:39.018Z,29.54
2022-07-29T13:35:09.689Z,29.85
2022-07-29T13:37:41.374Z,30.08
2022-07-29T13:52:17.075Z,30.92
2022-07-29T13:54:45.666Z,30.58
2022-07-29T13:57:15.469Z,30.15
2022-07-29T13:59:48.362Z,30.11
2022-07-29T14:02:19.540Z,30.17
2022-07-29T14:04:48.654Z,30.07
2022-07-29T14:07:17.282Z,29.84
2022-07-29T14:09:45.865Z,29.51
2022-07-29T14:12:14.874Z,29.17
2022-07-29T14:14:43.772Z,28.96
2022-07-29T14:17:12.674Z,29.06
2022-07-29T14:19:41.286Z,29.14
2022-07-29T14:22:11.149Z,29.24
2022-07-29T14:24:40.616Z,29.23
2022-07-29T14:27:09.786Z,29.06
2022-07-29T14:29:39.471Z,28.94
2022-07-29T14:32:08.915Z,29.02
2022-07-29T14:34:45.650Z,28.79
2022-07-29T14:37:20.486Z,28.63
2022-07-29T14:39:49.896Z,28.58
2022-07-29T14:42:18.421Z,28.37
2022-07-29T14:44:47.042Z,28.19
2022-07-29T14:47:15.972Z,28.21
2022-07-29T14:49:44.425Z,28.22
2022-07-29T14:52:13.105Z,28.16
2022-07-29T14:54:41.733Z,28.12
2022-07-29T14:57:10.263Z,28.08
2022-07-29T14:59:38.774Z,27.92
2022-07-29T15:02:07.290Z,27.74
2022-07-29T15:04:35.890Z,27.64
2022-07-29T15:07:05.188Z,27.43
2022-07-29T15:09:40.332Z,27.14
2022-07-29T15:12:18.964Z,26.95
2022-07-29T15:14:49.931Z,26.70
2022-07-29T15:17:18.500Z,26.40
2022-07-29T15:19:47.920Z,26.21
2022-07-29T15:22:16.407Z,26.00
2022-07-29T15:24:45.569Z,25.90
2022-07-29T15:27:15.220Z,25.81
2022-07-29T15:29:45.152Z,25.65
2022-07-29T15:32:13.722Z,25.47
2022-07-29T15:34:42.721Z,25.41
2022-07-29T15:37:12.507Z,25.32
2022-07-29T15:39:41.005Z,25.28
2022-07-29T15:42:09.530Z,25.12
2022-07-29T15:44:38.359Z,24.95
2022-07-29T15:47:07.638Z,24.82
2022-07-29T15:49:48.026Z,24.73
2022-07-29T15:52:25.506Z,24.67
2022-07-29T15:54:56.971Z,24.62
2022-07-29T15:57:29.951Z,24.57
2022-07-29T15:59:58.590Z,24.53
2022-07-29T16:02:27.308Z,24.51
2022-07-29T16:04:55.948Z,24.49
2022-07-29T16:07:25.409Z,24.48
2022-07-29T16:10:00.253Z,24.49
2022-07-29T16:12:28.826Z,24.46
2022-07-29T16:14:57.780Z,24.36
2022-07-29T16:17:27.980Z,24.26
2022-07-29T16:19:56.738Z,24.14
2022-07-29T16:22:25.431Z,24.04
2022-07-29T16:24:53.949Z,23.91
2022-07-29T16:27:35.348Z,23.79
2022-07-29T16:30:10.874Z,23.69
2022-07-29T16:32:41.989Z,23.53
2022-07-29T16:35:12.082Z,23.32
2022-07-29T16:37:43.798Z,23.24
2022-07-29T16:40:13.139Z,23.14
2022-07-29T16:42:46.971Z,23.03
2022-07-29T16:45:18.069Z,22.93
2022-07-29T16:47:51.115Z,22.86
2022-07-29T16:50:20.243Z,22.78
2022-07-29T16:52:49.227Z,22.71
2022-07-29T16:55:17.960Z,22.66
2022-07-29T16:57:47.263Z,22.63
2022-07-29T17:00:17.778Z,22.60
2022-07-29T17:02:46.671Z,22.60
2022-07-29T17:05:16.270Z,22.58
2022-07-29T17:07:44.874Z,22.57
2022-07-29T17:10:13.606Z,22.56
2022-07-29T17:12:44.327Z,22.51
2022-07-29T17:15:14.292Z,22.47
2022-07-29T17:17:54.776Z,22.43
2022-07-29T17:20:26.909Z,22.40
2022-07-29T17:22:55.674Z,22.39
2022-07-29T17:25:25.204Z,22.37
2022-07-29T17:28:00.561Z,22.32
2022-07-29T17:30:30.319Z,22.25
2022-07-29T17:32:59.146Z,22.18
2022-07-29T17:35:46.087Z,22.12
2022-07-29T17:38:14.690Z,22.00
2022-07-29T17:40:43.329Z,22.01
2022-07-29T17:43:11.950Z,21.94
2022-07-29T17:45:50.430Z,21.87
2022-07-29T17:48:20.094Z,21.82
2022-07-29T17:50:49.410Z,21.78
2022-07-29T17:53:18.378Z,21.75
2022-07-29T17:55:48.910Z,21.75
2022-07-29T17:58:17.800Z,21.75
2022-07-29T18:00:46.406Z,21.77
2022-07-29T18:03:15.647Z,21.79
2022-07-29T18:05:44.605Z,21.81
2022-07-29T18:08:13.322Z,21.81
2022-07-29T18:10:42.253Z,21.80
2022-07-29T18:13:14.367Z,21.78
2022-07-29T18:15:45.235Z,21.75
2022-07-29T18:18:15.477Z,21.71
2022-07-29T18:20:44.650Z,21.66
2022-07-29T18:23:14.211Z,21.61
2022-07-29T18:25:43.025Z,21.57
2022-07-29T18:28:11.637Z,21.47
2022-07-29T18:30:40.195Z,21.40
2022-07-29T18:33:22.873Z,21.37
2022-07-29T18:36:10.598Z,21.31
2022-07-29T18:38:41.456Z,21.26
2022-07-29T18:41:10.675Z,21.21
2022-07-29T18:43:39.399Z,21.19
2022-07-29T18:46:08.162Z,21.17
2022-07-29T18:48:36.942Z,21.16
2022-07-29T18:51:09.044Z,21.12
2022-07-29T18:53:38.399Z,21.07
2022-07-29T18:56:06.988Z,21.00
2022-07-29T18:58:37.252Z,20.90
2022-07-29T19:01:06.784Z,20.82
2022-07-29T19:03:35.903Z,20.75
2022-07-29T19:06:04.926Z,20.69
2022-07-29T19:08:33.687Z,20.56
2022-07-29T19:11:02.430Z,20.60
2022-07-29T19:13:31.430Z,20.60
2022-07-29T19:16:00.017Z,20.61
2022-07-29T19:18:28.740Z,20.63
2022-07-29T19:20:57.555Z,20.66
2022-07-29T19:23:26.095Z,20.68
2022-07-29T19:25:54.926Z,20.68
2022-07-29T19:28:23.721Z,20.69
2022-07-29T19:30:52.706Z,20.69
2022-07-29T19:33:21.413Z,20.68
2022-07-29T19:35:54.611Z,20.69
2022-07-29T19:38:24.082Z,20.69
2022-07-29T19:40:56.905Z,20.70
2022-07-29T19:43:50.452Z,20.72
2022-07-29T19:46:14.229Z,20.72
2022-07-29T19:48:43.086Z,20.72
2022-07-29T19:51:11.977Z,20.72
2022-07-29T19:53:41.005Z,20.71
2022-07-29T19:56:09.844Z,20.71
2022-07-29T19:58:39.380Z,20.72
2022-07-29T20:01:14.683Z,20.72
2022-07-29T20:03:45.017Z,20.71
2022-07-29T20:06:14.059Z,20.70
2022-07-29T20:08:43.127Z,20.70
2022-07-29T20:11:11.744Z,20.70
2022-07-29T20:13:40.528Z,20.68
2022-07-29T20:16:09.256Z,20.67
2022-07-29T20:18:38.018Z,20.65
2022-07-29T20:21:06.735Z,20.61
2022-07-29T20:23:35.406Z,20.58
2022-07-29T20:26:09.395Z,20.54
2022-07-29T20:28:40.454Z,20.51
2022-07-29T20:31:09.610Z,20.48
2022-07-29T20:33:38.280Z,20.45
2022-07-29T20:36:07.203Z,20.43
2022-07-29T20:38:36.122Z,20.38
2022-07-29T20:41:05.357Z,20.34
2022-07-29T20:43:36.014Z,20.30
2022-07-29T20:46:07.722Z,20.24
2022-07-29T20:48:36.386Z,20.18
2022-07-29T20:51:04.956Z,20.12
2022-07-29T20:53:33.967Z,20.08
2022-07-29T20:56:02.502Z,20.08
2022-07-29T20:58:32.592Z,20.10
2022-07-29T21:01:02.039Z,20.12
2022-07-29T21:03:30.983Z,20.14
2022-07-29T21:06:00.425Z,20.15
2022-07-29T21:08:29.144Z,20.18
2022-07-29T21:10:57.949Z,20.20
2022-07-29T21:13:26.707Z,20.23
2022-07-29T21:16:00.011Z,20.24
2022-07-29T21:18:33.249Z,20.25
2022-07-29T21:21:01.927Z,20.29
2022-07-29T21:23:31.001Z,20.31
2022-07-29T21:26:00.219Z,20.32
2022-07-29T21:28:36.977Z,20.32
2022-07-29T21:31:12.717Z,20.35
2022-07-29T21:33:46.392Z,20.37
2022-07-29T21:36:46.748Z,20.38
2022-07-29T21:39:07.397Z,20.39
2022-07-29T21:41:36.209Z,20.39
2022-07-29T21:44:04.831Z,20.35
2022-07-29T21:46:33.503Z,20.32
2022-07-29T21:49:02.285Z,20.32
2022-07-29T21:51:30.898Z,20.32
2022-07-29T21:53:59.515Z,20.30
2022-07-29T21:56:30.275Z,20.29
2022-07-29T21:59:00.012Z,20.27
2022-07-29T22:01:28.513Z,20.26
2022-07-29T22:04:07.695Z,20.25
2022-07-29T22:06:36.779Z,20.25
2022-07-29T22:09:05.801Z,20.26
2022-07-29T22:11:36.727Z,20.26
2022-07-29T22:14:07.466Z,20.28
2022-07-29T22:16:36.264Z,20.30
2022-07-29T22:19:05.002Z,20.32
2022-07-29T22:21:33.624Z,20.35
2022-07-29T22:24:02.347Z,20.36
2022-07-29T22:26:31.271Z,20.35
2022-07-29T22:28:59.771Z,20.35
2022-07-29T22:31:28.521Z,20.35
2022-07-29T22:33:57.042Z,20.34
2022-07-29T22:36:27.143Z,20.36
2022-07-29T22:38:55.885Z,20.37
2022-07-29T22:41:24.513Z,20.38
2022-07-29T22:43:53.036Z,20.39
2022-07-29T22:46:22.525Z,20.40
2022-07-29T22:48:51.226Z,20.41
2022-07-29T22:51:19.720Z,20.43
2022-07-29T22:53:48.323Z,20.44
2022-07-29T22:56:17.749Z,20.46
2022-07-29T22:58:46.677Z,20.48
2022-07-29T23:01:16.794Z,20.49
2022-07-29T23:04:06.825Z,20.50
2022-07-29T23:06:35.518Z,20.51
2022-07-29T23:09:04.927Z,20.51
2022-07-29T23:11:33.568Z,20.51
2022-07-29T23:14:02.188Z,20.50
2022-07-29T23:16:30.786Z,20.50
2022-07-29T23:18:59.536Z,20.49
2022-07-29T23:21:28.151Z,20.49
2022-07-29T23:23:56.679Z,20.49
2022-07-29T23:26:25.271Z,20.48
2022-07-29T23:28:53.826Z,20.48
2022-07-29T23:31:22.339Z,20.48
2022-07-29T23:33:50.963Z,20.49
2022-07-29T23:36:21.089Z,20.47
2022-07-29T23:38:49.812Z,20.44
2022-07-29T23:41:18.432Z,20.41
2022-07-29T23:43:49.497Z,20.36
2022-07-29T23:46:18.158Z,20.33
2022-07-29T23:48:52.682Z,20.28
2022-07-29T23:51:21.857Z,20.23
2022-07-29T23:53:53.313Z,20.17
2022-07-29T23:56:23.010Z,20.15
2022-07-29T23:58:51.739Z,20.12
